Time;durP1;ratioP1;P1;durP2;ratioP2;P2;SDS_P1;SDS_P2;PMS_P1;PMS_P2;Temp;Humidity;BMP_temperature;BMP_pressure;BME280_temperature;BME280_humidity;BME280_pressure;Samples;Min_cycle;Max_cycle;Signal;HPM_P1;HPM_P2
2022/07/25 00:01:25;;;;;;;15.50;8.80;;;;;;;21.46;63.00;99114.53;1685827;84;21570;-79
2022/07/25 00:03:52;;;;;;;13.03;7.85;;;;;;;21.35;63.65;99112.61;1678291;85;21029;-79
2022/07/25 00:06:19;;;;;;;11.93;7.95;;;;;;;21.30;64.05;99113.39;1684973;85;21918;-79
2022/07/25 00:08:45;;;;;;;13.90;8.13;;;;;;;21.21;64.78;99112.23;1685009;85;21014;-78
2022/07/25 00:11:12;;;;;;;15.35;9.00;;;;;;;21.21;64.70;99104.80;1682494;84;21542;-78
2022/07/25 00:13:39;;;;;;;15.93;8.90;;;;;;;21.19;66.57;99108.86;1684063;84;21052;-78
2022/07/25 00:16:06;;;;;;;14.83;8.70;;;;;;;21.19;67.17;99102.25;1679807;84;21025;-78
2022/07/25 00:18:33;;;;;;;13.53;8.13;;;;;;;21.19;66.62;99106.21;1686440;83;21047;-79
2022/07/25 00:20:59;;;;;;;12.70;8.03;;;;;;;21.18;67.67;99108.95;1679595;85;21049;-78
2022/07/25 00:23:26;;;;;;;16.75;8.10;;;;;;;21.13;68.73;99101.80;1689101;84;21543;-78
2022/07/25 00:25:53;;;;;;;15.35;9.10;;;;;;;21.09;67.20;99098.55;1682079;84;21002;-80
2022/07/25 00:28:20;;;;;;;15.08;9.05;;;;;;;21.10;67.48;99102.87;1688134;84;21590;-79
2022/07/25 00:30:46;;;;;;;16.70;8.58;;;;;;;21.14;67.42;99106.99;1685661;85;21030;-79
2022/07/25 00:33:13;;;;;;;15.88;8.80;;;;;;;21.16;68.05;99109.05;1682409;85;21481;-78
2022/07/25 00:35:39;;;;;;;13.48;9.05;;;;;;;21.19;66.83;99111.98;1683217;84;21068;-78
2022/07/25 00:38:06;;;;;;;15.23;8.75;;;;;;;21.17;66.19;99108.12;1678119;84;20995;-78
2022/07/25 00:40:33;;;;;;;13.90;8.18;;;;;;;21.15;67.21;99107.38;1682171;84;20994;-79
2022/07/25 00:43:00;;;;;;;10.98;7.87;;;;;;;21.16;66.79;99101.61;1688732;85;21017;-79
2022/07/25 00:45:27;;;;;;;14.10;8.23;;;;;;;21.15;65.72;99105.19;1683303;84;21021;-78
2022/07/25 00:47:53;;;;;;;12.23;7.85;;;;;;;21.12;66.50;99103.61;1681856;85;21030;-78
2022/07/25 00:50:20;;;;;;;13.98;8.53;;;;;;;21.09;66.04;99105.16;1687383;85;21018;-78
2022/07/25 00:52:47;;;;;;;12.00;8.03;;;;;;;21.08;66.18;99106.58;1681463;84;21018;-79
2022/07/25 00:55:14;;;;;;;11.20;7.60;;;;;;;21.06;66.46;99109.31;1673738;84;21037;-78
2022/07/25 00:57:41;;;;;;;15.38;8.60;;;;;;;21.04;66.76;99111.22;1684554;85;21046;-78
2022/07/25 01:00:12;;;;;;;17.02;8.85;;;;;;;21.01;67.33;99105.67;1689493;85;21049;-78
2022/07/25 01:02:40;;;;;;;17.10;9.80;;;;;;;21.00;67.07;99112.38;1675075;84;20998;-78
2022/07/25 01:05:08;;;;;;;15.38;9.20;;;;;;;20.95;67.94;99101.26;1689542;85;21499;-78
2022/07/25 01:07:37;;;;;;;14.63;9.10;;;;;;;20.90;67.18;99104.23;1687689;84;20990;-78
2022/07/25 01:10:05;;;;;;;14.28;8.90;;;;;;;20.83;68.35;99096.33;1688840;84;21045;-79
2022/07/25 01:12:34;;;;;;;14.25;8.80;;;;;;;20.79;68.03;99105.41;1687609;84;21038;-80
2022/07/25 01:15:00;;;;;;;12.68;8.18;;;;;;;20.73;68.36;99094.81;1687995;85;21019;-79
2022/07/25 01:17:27;;;;;;;15.18;8.40;;;;;;;20.69;68.34;99097.28;1681390;84;21520;-79
2022/07/25 01:19:53;;;;;;;12.90;8.75;;;;;;;20.65;68.58;99098.41;1689285;85;21046;-79
2022/07/25 01:22:20;;;;;;;15.65;7.78;;;;;;;20.61;68.51;99100.43;1683284;84;21505;-78
2022/07/25 01:24:46;;;;;;;14.63;8.50;;;;;;;20.59;68.73;99098.37;1687840;85;21022;-79
2022/07/25 01:27:13;;;;;;;13.32;8.05;;;;;;;20.56;68.63;99097.69;1687212;84;21077;-79
2022/07/25 01:29:40;;;;;;;14.18;7.42;;;;;;;20.51;68.61;99096.65;1683368;85;21025;-78
2022/07/25 01:32:06;;;;;;;12.93;7.53;;;;;;;20.47;67.49;99103.08;1687955;84;21029;-78
2022/07/25 01:34:33;;;;;;;11.70;7.58;;;;;;;20.34;67.88;99097.77;1667719;85;21062;-78
2022/07/25 01:36:59;;;;;;;10.43;6.75;;;;;;;20.29;69.16;99097.21;1685942;85;21006;-79
2022/07/25 01:39:26;;;;;;;11.95;6.55;;;;;;;20.24;67.97;99095.36;1674123;84;21462;-79
2022/07/25 01:41:53;;;;;;;13.05;7.12;;;;;;;20.16;68.11;99098.49;1688614;84;21010;-79
2022/07/25 01:44:19;;;;;;;9.90;6.85;;;;;;;20.11;67.92;99095.30;1681400;84;21041;-79
2022/07/25 01:46:46;;;;;;;12.18;7.15;;;;;;;20.08;68.11;99095.98;1688896;83;21030;-79
2022/07/25 01:49:12;;;;;;;13.43;7.25;;;;;;;20.03;67.71;99095.81;1681170;84;21514;-79
2022/07/25 01:51:39;;;;;;;9.98;6.72;;;;;;;19.97;67.00;99104.09;1689415;85;21046;-79
2022/07/25 01:54:06;;;;;;;15.03;7.45;;;;;;;19.90;69.07;99101.48;1682156;84;21537;-79
2022/07/25 01:56:32;;;;;;;11.78;7.42;;;;;;;19.90;68.38;99103.28;1678811;85;21018;-79
2022/07/25 01:58:59;;;;;;;13.55;8.10;;;;;;;19.89;68.19;99099.78;1679735;85;22147;-79
2022/07/25 02:01:25;;;;;;;11.70;7.28;;;;;;;19.90;68.59;99094.89;1683461;85;21138;-80
2022/07/25 02:03:52;;;;;;;14.00;7.40;;;;;;;19.86;68.28;99090.75;1682904;85;21062;-79
2022/07/25 02:06:19;;;;;;;13.88;7.70;;;;;;;19.83;67.51;99094.89;1683709;85;21054;-79
2022/07/25 02:08:46;;;;;;;13.45;8.03;;;;;;;19.78;67.72;99099.63;1683572;85;21046;-78
2022/07/25 02:11:12;;;;;;;12.58;7.75;;;;;;;19.75;68.08;99090.09;1668707;85;21082;-79
2022/07/25 02:13:39;;;;;;;12.65;8.35;;;;;;;19.75;69.26;99094.05;1683650;85;21014;-79
2022/07/25 02:16:06;;;;;;;15.30;8.45;;;;;;;19.73;68.54;99095.94;1661904;85;21038;-79
2022/07/25 02:18:33;;;;;;;13.53;8.28;;;;;;;19.71;68.41;99097.83;1683599;85;20990;-78
2022/07/25 02:20:59;;;;;;;14.78;7.95;;;;;;;19.70;69.86;99094.80;1677344;85;21045;-79
2022/07/25 02:23:26;;;;;;;15.35;8.63;;;;;;;19.67;69.73;99098.45;1680737;85;21504;-78
2022/07/25 02:25:53;;;;;;;12.75;7.87;;;;;;;19.65;70.36;99092.43;1679558;85;21010;-78
2022/07/25 02:28:19;;;;;;;16.12;8.20;;;;;;;19.64;70.03;99093.39;1683661;85;21513;-78
2022/07/25 02:30:46;;;;;;;12.30;7.72;;;;;;;19.62;69.86;99095.75;1678085;85;21022;-78
2022/07/25 02:33:12;;;;;;;14.73;8.25;;;;;;;19.61;70.78;99088.29;1675611;85;21514;-79
2022/07/25 02:35:39;;;;;;;15.83;8.35;;;;;;;19.59;71.40;99099.41;1682679;85;21058;-78
2022/07/25 02:38:05;;;;;;;15.28;7.45;;;;;;;19.60;71.18;99100.28;1677208;85;21562;-79
2022/07/25 02:40:32;;;;;;;14.95;7.72;;;;;;;19.62;71.45;99104.50;1683456;85;21026;-79
2022/07/25 02:42:59;;;;;;;17.40;7.80;;;;;;;19.63;71.70;99111.45;1672783;85;21653;-79
2022/07/25 02:45:25;;;;;;;16.02;7.55;;;;;;;19.66;71.15;99110.44;1683638;85;21028;-79
2022/07/25 02:47:52;;;;;;;15.23;7.87;;;;;;;19.67;71.42;99103.73;1673719;84;21586;-79
2022/07/25 02:50:19;;;;;;;11.03;7.42;;;;;;;19.71;71.69;99089.91;1684595;84;21050;-79
2022/07/25 02:52:46;;;;;;;17.77;8.58;;;;;;;19.75;71.11;99097.17;1680309;85;21550;-79
2022/07/25 02:55:12;;;;;;;18.62;8.53;;;;;;;19.76;70.17;99101.52;1683560;85;21155;-78
2022/07/25 02:57:39;;;;;;;15.78;9.05;;;;;;;19.70;70.90;99094.80;1663956;85;21069;-79
2022/07/25 03:00:08;;;;;;;16.32;8.75;;;;;;;19.72;71.35;99098.22;1689368;85;21486;-79
2022/07/25 03:02:34;;;;;;;20.68;8.50;;;;;;;19.75;71.32;99099.80;1680396;83;21034;-81
2022/07/25 03:05:01;;;;;;;16.55;8.58;;;;;;;19.76;70.74;99098.88;1680784;83;21018;-81
2022/07/25 03:07:28;;;;;;;13.43;8.28;;;;;;;19.72;71.75;99101.34;1683339;85;21050;-78
2022/07/25 03:09:54;;;;;;;21.02;9.53;;;;;;;19.71;71.46;99098.27;1679731;83;21022;-79
2022/07/25 03:12:21;;;;;;;16.42;8.65;;;;;;;19.67;71.47;99095.81;1698772;83;21015;-79
2022/07/25 03:14:47;;;;;;;12.37;7.78;;;;;;;19.66;71.46;99099.89;1687893;83;21002;-80
2022/07/25 03:17:14;;;;;;;13.48;7.67;;;;;;;19.64;71.22;99109.21;1660379;86;21026;-79
2022/07/25 03:19:41;;;;;;;15.80;7.95;;;;;;;19.60;69.94;99109.51;1647901;85;21059;-80
2022/07/25 03:22:08;;;;;;;13.30;7.33;;;;;;;19.54;69.61;99109.89;1679654;85;21095;-80
2022/07/25 03:24:35;;;;;;;14.25;7.30;;;;;;;19.45;68.69;99107.33;1670160;85;21034;-78
2022/07/25 03:27:02;;;;;;;12.82;7.10;;;;;;;19.37;69.74;99108.27;1696441;83;21109;-80
2022/07/25 03:29:28;;;;;;;17.02;7.80;;;;;;;19.37;68.75;99114.86;1695696;83;21613;-79
2022/07/25 03:31:55;;;;;;;12.78;7.85;;;;;;;19.34;69.56;99111.08;1687389;83;21033;-78
2022/07/25 03:34:21;;;;;;;12.40;7.78;;;;;;;19.36;70.15;99116.66;1679349;84;21065;-81
2022/07/25 03:36:48;;;;;;;14.65;7.40;;;;;;;19.34;69.60;99113.72;1706038;83;20991;-80
2022/07/25 03:39:15;;;;;;;14.10;8.13;;;;;;;19.35;70.30;99106.20;1707318;83;21050;-80
2022/07/25 03:41:41;;;;;;;13.72;7.97;;;;;;;19.41;69.88;99111.94;1687874;85;21025;-79
2022/07/25 03:44:08;;;;;;;12.68;7.58;;;;;;;19.39;69.78;99105.91;1707035;83;21097;-78
2022/07/25 03:46:35;;;;;;;14.35;8.28;;;;;;;19.39;69.82;99110.34;1684678;83;21018;-79
2022/07/25 03:49:01;;;;;;;17.57;8.23;;;;;;;19.35;70.68;99118.06;1708140;83;20974;-78
2022/07/25 03:51:28;;;;;;;13.03;8.10;;;;;;;19.37;70.38;99109.59;1692377;83;21038;-80
2022/07/25 03:54:00;;;;;;;15.95;8.05;;;;;;;19.40;70.43;99106.78;1689452;85;20975;-78
2022/07/25 03:56:33;;;;;;;11.65;7.80;;;;;;;19.45;70.18;99108.17;1657734;84;21062;-78
2022/07/25 03:59:00;;;;;;;14.18;8.73;;;;;;;19.48;69.35;99112.43;1700066;83;21023;-78
2022/07/25 04:01:27;;;;;;;14.90;7.83;;;;;;;19.46;69.39;99109.04;1685742;83;21078;-79
2022/07/25 04:03:53;;;;;;;15.45;9.15;;;;;;;19.48;69.71;99111.95;1699092;83;21066;-79
2022/07/25 04:06:22;;;;;;;14.13;7.80;;;;;;;19.53;69.13;99117.41;1692099;83;20987;-79
2022/07/25 04:08:49;;;;;;;12.63;8.08;;;;;;;19.55;69.36;99117.68;1694003;84;21043;-79
2022/07/25 04:11:16;;;;;;;14.60;9.00;;;;;;;19.59;69.73;99109.95;1686227;84;21041;-79
2022/07/25 04:13:43;;;;;;;12.95;8.35;;;;;;;19.63;70.70;99114.09;1688864;84;20998;-79
2022/07/25 04:16:10;;;;;;;13.83;8.15;;;;;;;19.64;68.89;99115.80;1691333;84;21538;-79
2022/07/25 04:18:36;;;;;;;12.30;8.35;;;;;;;19.64;69.78;99113.17;1664900;85;21031;-78
2022/07/25 04:21:05;;;;;;;14.43;8.98;;;;;;;19.68;70.97;99114.67;1691003;84;21569;-79
2022/07/25 04:23:32;;;;;;;12.58;8.68;;;;;;;19.70;69.96;99113.27;1644845;86;21070;-79
2022/07/25 04:25:59;;;;;;;13.03;8.68;;;;;;;19.71;70.69;99115.42;1659899;84;21408;-78
2022/07/25 04:28:26;;;;;;;15.05;8.55;;;;;;;19.76;70.04;99116.03;1693879;83;21034;-78
2022/07/25 04:30:53;;;;;;;15.05;7.97;;;;;;;19.80;70.60;99117.52;1692597;83;21574;-78
2022/07/25 04:33:21;;;;;;;18.50;8.45;;;;;;;19.86;70.45;99115.81;1686893;83;21038;-78
2022/07/25 04:35:47;;;;;;;15.83;8.38;;;;;;;19.92;69.35;99115.42;1672026;85;21042;-80
2022/07/25 04:38:14;;;;;;;21.00;8.35;;;;;;;19.97;70.19;99118.60;1696223;84;21054;-79
2022/07/25 04:40:41;;;;;;;18.27;8.88;;;;;;;20.01;69.92;99120.10;1686626;84;21606;-79
2022/07/25 04:43:08;;;;;;;28.30;13.68;;;;;;;20.03;70.35;99115.60;1685993;84;20994;-78
2022/07/25 04:45:35;;;;;;;22.60;10.43;;;;;;;20.10;70.39;99107.29;1692226;83;21023;-79
2022/07/25 04:48:03;;;;;;;18.25;9.33;;;;;;;20.19;69.74;99112.83;1633292;87;20991;-78
2022/07/25 04:50:29;;;;;;;17.75;9.20;;;;;;;20.26;69.96;99111.47;1690739;84;21121;-79
2022/07/25 04:52:57;;;;;;;19.23;9.80;;;;;;;20.35;69.28;99107.41;1688920;84;21022;-78
2022/07/25 04:55:23;;;;;;;22.15;11.38;;;;;;;20.39;69.75;99110.66;1668635;85;21054;-80
2022/07/25 04:57:50;;;;;;;27.90;17.35;;;;;;;20.50;69.41;99111.30;1689516;84;22429;-79
2022/07/25 05:00:17;;;;;;;23.52;10.90;;;;;;;20.59;68.65;99113.34;1692604;83;21070;-79
2022/07/25 05:02:44;;;;;;;18.67;9.85;;;;;;;20.66;67.99;99113.33;1689604;83;21471;-79
2022/07/25 05:05:11;;;;;;;16.05;9.95;;;;;;;20.73;67.28;99115.94;1685577;84;21018;-79
2022/07/25 05:07:37;;;;;;;18.90;9.13;;;;;;;20.77;67.17;99109.50;1697223;84;21491;-78
2022/07/25 05:10:05;;;;;;;16.27;9.00;;;;;;;20.82;66.46;99114.47;1696289;84;21026;-80
2022/07/25 05:12:32;;;;;;;15.88;9.25;;;;;;;20.85;65.97;99112.95;1700602;83;21043;-79
2022/07/25 05:14:59;;;;;;;14.28;8.93;;;;;;;20.84;66.00;99110.77;1691409;83;22265;-79
2022/07/25 05:17:25;;;;;;;25.62;9.43;;;;;;;20.93;65.90;99113.73;1693758;84;21010;-80
2022/07/25 05:19:52;;;;;;;17.73;9.15;;;;;;;21.00;65.60;99106.61;1687059;83;21533;-79
2022/07/25 05:22:18;;;;;;;14.63;9.03;;;;;;;21.07;64.81;99109.70;1695217;84;21007;-81
2022/07/25 05:24:45;;;;;;;16.42;8.68;;;;;;;21.11;64.70;99108.99;1689690;84;21198;-79
2022/07/25 05:27:12;;;;;;;18.07;8.10;;;;;;;21.17;64.61;99111.21;1691804;84;21081;-79
2022/07/25 05:29:38;;;;;;;14.38;8.43;;;;;;;21.22;64.23;99111.27;1692504;83;21547;-79
2022/07/25 05:32:05;;;;;;;15.30;9.10;;;;;;;21.23;64.06;99101.56;1695618;83;20992;-79
2022/07/25 05:34:32;;;;;;;15.25;8.40;;;;;;;21.25;64.09;99102.30;1699238;83;21027;-79
2022/07/25 05:36:59;;;;;;;12.88;8.33;;;;;;;21.31;64.20;99101.01;1690209;84;21113;-79
2022/07/25 05:39:25;;;;;;;14.13;8.55;;;;;;;21.36;63.92;99105.03;1663303;85;21063;-78
2022/07/25 05:41:52;;;;;;;15.95;8.43;;;;;;;21.42;63.78;99101.95;1695877;84;21068;-79
2022/07/25 05:44:18;;;;;;;18.32;8.30;;;;;;;21.51;63.42;99099.20;1662960;85;21028;-79
2022/07/25 05:46:45;;;;;;;16.45;7.80;;;;;;;21.58;63.43;99092.98;1665822;85;21527;-80
2022/07/25 05:49:12;;;;;;;15.13;8.43;;;;;;;21.67;63.67;99091.02;1672842;85;21015;-80
2022/07/25 05:51:38;;;;;;;11.38;7.83;;;;;;;21.73;63.39;99090.58;1669124;84;21490;-79
2022/07/25 05:54:05;;;;;;;19.85;8.38;;;;;;;21.81;63.15;99097.98;1682864;84;21350;-79
2022/07/25 05:56:32;;;;;;;12.50;7.90;;;;;;;21.90;63.01;99091.17;1699137;83;21531;-80
2022/07/25 05:58:58;;;;;;;17.73;8.33;;;;;;;22.00;63.00;99093.52;1690528;84;21129;-79
2022/07/25 06:01:25;;;;;;;15.95;8.90;;;;;;;22.10;63.11;99095.02;1697107;83;21014;-80
2022/07/25 06:03:52;;;;;;;15.18;8.30;;;;;;;22.21;62.73;99089.80;1659840;85;21093;-80
2022/07/25 06:06:18;;;;;;;13.25;8.78;;;;;;;22.32;62.72;99092.55;1689143;83;21140;-79
2022/07/25 06:08:45;;;;;;;14.98;8.58;;;;;;;22.37;62.47;99094.35;1695046;83;21558;-80
2022/07/25 06:11:12;;;;;;;19.60;9.35;;;;;;;22.43;62.28;99089.09;1679672;84;21030;-78
2022/07/25 06:13:38;;;;;;;15.65;9.60;;;;;;;22.50;62.13;99092.11;1663689;84;20986;-76
2022/07/25 06:16:06;;;;;;;16.35;9.73;;;;;;;22.58;62.12;99093.25;1694722;84;21035;-86
2022/07/25 06:18:32;;;;;;;14.95;9.43;;;;;;;22.70;62.50;99092.81;1668069;85;20996;-86
2022/07/25 06:20:59;;;;;;;17.10;9.75;;;;;;;22.84;61.69;99087.80;1700004;84;21022;-82
2022/07/25 06:23:25;;;;;;;23.73;8.98;;;;;;;22.89;61.65;99076.83;1700053;83;20983;-86
2022/07/25 06:25:53;;;;;;;17.82;9.53;;;;;;;22.96;61.52;99065.64;1696798;83;21037;-86
2022/07/25 06:28:20;;;;;;;18.52;9.23;;;;;;;23.09;61.28;99056.77;1696805;83;21122;-85
2022/07/25 06:30:47;;;;;;;14.83;8.23;;;;;;;23.17;61.05;99064.48;1697350;83;21012;-86
2022/07/25 06:33:13;;;;;;;17.40;8.90;;;;;;;23.28;60.64;99068.09;1698726;83;21102;-83
2022/07/25 06:35:40;;;;;;;15.08;8.73;;;;;;;23.32;60.48;99070.41;1696822;83;21077;-81
2022/07/25 06:38:07;;;;;;;15.38;9.00;;;;;;;23.41;60.15;99067.51;1693883;83;21526;-82
2022/07/25 06:40:33;;;;;;;13.00;8.58;;;;;;;23.47;59.85;99073.66;1697939;83;21026;-83
2022/07/25 06:43:00;;;;;;;14.73;8.85;;;;;;;23.57;59.71;99077.27;1703668;83;21021;-83
2022/07/25 06:45:27;;;;;;;16.75;8.48;;;;;;;23.66;59.09;99072.22;1701717;84;21083;-84
2022/07/25 06:47:54;;;;;;;14.95;8.10;;;;;;;23.73;57.94;99068.09;1699952;83;21610;-83
2022/07/25 06:50:21;;;;;;;13.32;7.75;;;;;;;23.78;57.80;99072.59;1699217;83;21050;-84
2022/07/25 06:52:50;;;;;;;12.47;7.85;;;;;;;23.83;57.85;99071.72;1694207;83;21118;-84
2022/07/25 06:55:17;;;;;;;12.93;8.10;;;;;;;23.92;57.55;99067.50;1640524;86;21611;-85
2022/07/25 06:57:43;;;;;;;12.40;7.33;;;;;;;23.99;56.88;99061.57;1711709;82;21077;-84
2022/07/25 07:00:13;;;;;;;10.93;7.25;;;;;;;24.09;56.35;99055.00;1717740;82;21006;-85
2022/07/25 07:03:00;;;;;;;14.85;7.42;;;;;;;24.21;56.70;99052.69;1724045;82;21179;-84
2022/07/25 07:05:30;;;;;;;13.83;8.55;;;;;;;24.33;56.14;99055.28;1723183;82;21004;-85
2022/07/25 07:07:58;;;;;;;12.00;8.13;;;;;;;24.49;56.08;99058.83;1720050;82;21017;-85
2022/07/25 07:10:26;;;;;;;20.23;7.75;;;;;;;24.57;55.24;99053.29;1718546;82;21069;-84
2022/07/25 07:13:06;;;;;;;13.55;7.92;;;;;;;24.66;54.65;99046.84;1717420;82;21038;-85
2022/07/25 07:15:33;;;;;;;15.85;7.40;;;;;;;24.75;54.93;99048.23;1680679;83;21018;-85
2022/07/25 07:18:00;;;;;;;12.60;7.65;;;;;;;24.86;54.57;99043.81;1692048;83;21030;-85
2022/07/25 07:20:27;;;;;;;11.53;7.28;;;;;;;24.91;54.35;99043.78;1690407;83;21002;-85
2022/07/25 07:22:53;;;;;;;12.60;7.15;;;;;;;24.99;53.89;99048.45;1693881;83;21015;-85
2022/07/25 07:25:20;;;;;;;10.98;7.28;;;;;;;25.10;54.35;99043.03;1699809;83;21070;-88
2022/07/25 07:27:47;;;;;;;12.10;7.37;;;;;;;25.20;53.75;99045.25;1686215;85;21074;-85
2022/07/25 07:30:14;;;;;;;9.55;6.67;;;;;;;25.30;53.50;99041.33;1712438;83;21026;-87
2022/07/25 07:32:43;;;;;;;10.85;6.67;;;;;;;25.34;53.72;99049.89;1685315;83;21061;-85
2022/07/25 07:35:11;;;;;;;10.60;6.80;;;;;;;25.45;53.09;99043.66;1695130;83;20982;-88
2022/07/25 07:37:38;;;;;;;10.08;6.67;;;;;;;25.52;53.28;99038.96;1685987;83;21082;-87
2022/07/25 07:40:07;;;;;;;10.68;6.83;;;;;;;25.60;52.98;99038.29;1694968;83;21071;-85
2022/07/25 07:42:40;;;;;;;11.05;6.75;;;;;;;25.67;52.88;99034.62;1660555;85;21058;-86
2022/07/25 07:45:22;;;;;;;10.50;7.17;;;;;;;25.74;52.72;99033.91;1690636;83;20996;-84
2022/07/25 07:47:52;;;;;;;10.63;7.07;;;;;;;25.85;52.74;99038.29;1702818;83;21181;-87
2022/07/25 07:50:23;;;;;;;11.08;7.50;;;;;;;25.98;52.09;99036.25;1691143;83;21044;-86
2022/07/25 07:52:52;;;;;;;10.82;7.60;;;;;;;26.07;51.93;99034.56;1702551;83;21085;-87
2022/07/25 07:58:06;;;;;;;15.50;7.28;;;;;;;26.25;51.14;99037.38;1719709;82;21038;-85
2022/07/25 08:00:38;;;;;;;14.38;7.10;;;;;;;26.31;51.15;99031.98;1721960;82;21018;-85
2022/07/25 08:03:07;;;;;;;11.10;6.65;;;;;;;26.39;51.05;99029.45;1722324;82;21504;-85
2022/07/25 08:05:38;;;;;;;11.78;6.87;;;;;;;26.52;50.30;99028.68;1696446;83;21056;-85
2022/07/25 08:08:08;;;;;;;10.13;7.00;;;;;;;26.63;49.93;99026.88;1686345;83;21089;-86
2022/07/25 08:10:38;;;;;;;9.90;6.80;;;;;;;26.73;48.62;99027.19;1703669;83;20988;-85
2022/07/25 08:13:18;;;;;;;9.80;6.35;;;;;;;26.79;48.41;99021.78;1685974;85;21006;-86
2022/07/25 08:15:50;;;;;;;10.30;6.87;;;;;;;26.84;48.64;99018.67;1700520;83;21050;-87
2022/07/25 08:18:17;;;;;;;10.82;6.70;;;;;;;26.84;48.56;99018.20;1692044;85;21033;-87
2022/07/25 08:20:45;;;;;;;12.37;6.80;;;;;;;26.94;48.30;99015.02;1693442;83;21058;-86
2022/07/25 08:23:12;;;;;;;10.98;6.37;;;;;;;27.05;48.04;99013.98;1692211;83;20979;-84
2022/07/25 08:25:40;;;;;;;10.08;6.65;;;;;;;27.15;47.71;99013.45;1691581;85;21041;-87
2022/07/25 08:28:07;;;;;;;9.20;6.28;;;;;;;27.31;47.33;99013.34;1692365;85;21036;-86
2022/07/25 08:30:36;;;;;;;10.78;6.85;;;;;;;27.46;47.13;99011.05;1688113;85;21035;-87
2022/07/25 08:33:06;;;;;;;9.50;6.50;;;;;;;27.57;46.48;99001.01;1692109;85;21126;-86
2022/07/25 08:35:34;;;;;;;9.68;6.58;;;;;;;27.72;45.96;98998.66;1691198;83;21002;-87
2022/07/25 08:38:03;;;;;;;13.38;6.87;;;;;;;27.83;45.38;99003.43;1687015;85;21015;-86
2022/07/25 08:40:31;;;;;;;10.68;6.85;;;;;;;27.84;44.62;99008.63;1694025;83;20972;-87
2022/07/25 08:42:59;;;;;;;9.30;6.47;;;;;;;27.91;44.86;99000.40;1694583;83;21030;-86
2022/07/25 08:45:27;;;;;;;13.72;7.03;;;;;;;28.04;44.84;99003.18;1689394;83;21054;-86
2022/07/25 08:47:55;;;;;;;8.60;6.72;;;;;;;28.14;43.93;98999.94;1722934;81;21122;-85
2022/07/25 08:50:26;;;;;;;10.95;6.85;;;;;;;28.20;44.10;98999.31;1729333;82;21027;-85
2022/07/25 08:52:53;;;;;;;11.57;6.40;;;;;;;28.28;41.94;99001.22;1734740;82;21543;-87
2022/07/25 08:55:23;;;;;;;11.55;6.50;;;;;;;28.34;42.66;98993.41;1691982;85;21069;-88
2022/07/25 08:57:52;;;;;;;12.45;6.70;;;;;;;28.34;42.12;98988.06;1688177;85;21051;-84
2022/07/25 09:00:26;;;;;;;10.68;5.90;;;;;;;28.44;41.39;98997.34;1662903;86;20994;-84
2022/07/25 09:02:59;;;;;;;12.78;7.62;;;;;;;28.62;40.99;98991.16;1712213;83;21062;-84
2022/07/25 09:05:30;;;;;;;10.30;7.15;;;;;;;28.75;38.97;98988.41;1707086;83;21022;-85
2022/07/25 09:08:07;;;;;;;8.95;5.95;;;;;;;28.75;40.16;98984.39;1683301;84;21033;-86
2022/07/25 09:10:35;;;;;;;12.13;6.22;;;;;;;28.86;38.52;98993.97;1677445;84;21121;-86
2022/07/25 09:13:12;;;;;;;10.68;6.33;;;;;;;28.94;37.73;98990.52;1677519;84;21005;-85
2022/07/25 09:15:50;;;;;;;11.25;6.55;;;;;;;28.93;38.30;98987.52;1686468;84;20999;-85
2022/07/25 09:18:22;;;;;;;10.63;6.65;;;;;;;28.89;37.13;98987.49;1650260;85;21039;-85
2022/07/25 09:20:57;;;;;;;13.30;6.03;;;;;;;28.95;36.49;98989.53;1686539;84;21090;-86
2022/07/25 09:23:34;;;;;;;9.53;6.65;;;;;;;29.06;38.09;98985.22;1651227;85;21023;-88
2022/07/25 09:26:11;;;;;;;11.57;6.53;;;;;;;29.09;37.97;98979.56;1661806;85;21028;-86
2022/07/25 09:28:48;;;;;;;8.98;6.45;;;;;;;29.22;35.68;98987.67;1701963;83;21054;-87
2022/07/25 09:31:17;;;;;;;10.72;6.28;;;;;;;29.28;36.58;98984.34;1721737;83;21062;-87
2022/07/25 09:33:54;;;;;;;9.53;6.70;;;;;;;29.41;36.78;98982.57;1709539;83;21050;-86
2022/07/25 09:36:21;;;;;;;7.42;5.78;;;;;;;29.50;36.74;98985.59;1712751;82;21007;-87
2022/07/25 09:38:54;;;;;;;10.50;6.35;;;;;;;29.57;36.26;98978.60;1703638;82;20988;-88
2022/07/25 09:41:21;;;;;;;7.95;5.90;;;;;;;29.63;36.08;98974.44;1704380;82;21041;-89
2022/07/25 09:43:48;;;;;;;10.32;5.92;;;;;;;29.77;36.22;98975.16;1678929;83;21061;-90
2022/07/25 09:46:15;;;;;;;8.20;5.75;;;;;;;29.80;36.27;98964.09;1721642;82;21066;-90
2022/07/25 09:48:44;;;;;;;8.43;5.37;;;;;;;29.87;36.37;98963.78;1709875;81;21091;-89
2022/07/25 09:51:11;;;;;;;8.18;5.53;;;;;;;29.93;36.42;98956.42;1726621;83;21039;-89
2022/07/25 09:53:39;;;;;;;8.58;5.95;;;;;;;30.04;35.16;98957.09;1728474;83;21120;-89
2022/07/25 09:56:07;;;;;;;8.80;6.15;;;;;;;30.11;35.72;98958.94;1707371;83;21111;-89
2022/07/25 09:58:34;;;;;;;9.28;5.65;;;;;;;30.24;35.58;98949.55;1710151;83;21053;-89
2022/07/25 10:01:05;;;;;;;11.60;5.92;;;;;;;30.38;35.83;98954.77;1708857;83;21020;-88
2022/07/25 10:03:49;;;;;;;7.58;5.80;;;;;;;30.53;35.79;98952.57;1708752;82;21022;-88
2022/07/25 10:06:39;;;;;;;8.18;5.65;;;;;;;30.67;35.55;98951.03;1715598;83;21082;-88
2022/07/25 10:09:13;;;;;;;7.33;5.20;;;;;;;30.82;34.23;98946.30;1709028;83;21546;-88
2022/07/25 10:12:04;;;;;;;7.85;5.50;;;;;;;30.88;34.39;98945.64;1702280;83;21015;-89
2022/07/25 10:14:34;;;;;;;9.63;5.62;;;;;;;30.78;32.53;98947.66;1684105;84;21787;-89
2022/07/25 10:17:01;;;;;;;11.08;5.78;;;;;;;30.77;33.10;98945.99;1707382;83;21010;-88
2022/07/25 10:19:48;;;;;;;9.33;5.80;;;;;;;30.80;33.64;98942.95;1706196;83;21188;-88
2022/07/25 10:22:15;;;;;;;9.30;5.95;;;;;;;30.87;31.32;98947.97;1686208;83;21012;-87
2022/07/25 10:24:46;;;;;;;7.03;5.45;;;;;;;30.83;33.24;98946.64;1708207;83;21005;-87
2022/07/25 10:27:22;;;;;;;12.70;6.17;;;;;;;30.84;33.20;98942.94;1695531;83;21009;-87
2022/07/25 10:29:54;;;;;;;8.20;5.03;;;;;;;30.87;33.44;98933.21;1706012;83;21651;-87
2022/07/25 10:32:25;;;;;;;8.65;5.42;;;;;;;30.99;33.21;98935.88;1707336;84;21071;-87
2022/07/25 10:34:53;;;;;;;7.62;4.97;;;;;;;31.05;32.16;98931.66;1706731;84;21019;-88
2022/07/25 10:37:28;;;;;;;7.33;5.50;;;;;;;31.00;31.76;98924.14;1710793;83;21083;-88
2022/07/25 10:39:55;;;;;;;9.60;5.00;;;;;;;30.98;31.85;98916.77;1707051;84;20993;-88
2022/07/25 10:42:24;;;;;;;8.03;5.30;;;;;;;31.04;32.07;98906.67;1712897;83;21072;-86
2022/07/25 10:44:56;;;;;;;8.53;5.05;;;;;;;31.22;32.35;98905.08;1707451;83;21134;-87
2022/07/25 10:47:26;;;;;;;8.43;5.37;;;;;;;31.43;32.42;98904.44;1713996;83;20988;-89
2022/07/25 10:49:59;;;;;;;6.45;4.90;;;;;;;31.65;30.14;98892.58;1694314;82;21057;-88
2022/07/25 10:52:30;;;;;;;7.80;5.30;;;;;;;31.86;31.45;98896.79;1678002;83;20989;-86
2022/07/25 10:55:01;;;;;;;6.30;4.73;;;;;;;31.99;30.27;98900.72;1697434;83;21006;-86
2022/07/25 10:57:29;;;;;;;7.35;4.67;;;;;;;32.01;30.43;98891.51;1661578;85;21611;-86
2022/07/25 11:00:05;;;;;;;6.95;5.17;;;;;;;32.10;30.70;98889.05;1680197;84;21043;-86
2022/07/25 11:02:32;;;;;;;6.53;4.78;;;;;;;32.24;30.66;98883.38;1681191;84;21084;-86
2022/07/25 11:05:03;;;;;;;6.83;4.92;;;;;;;32.41;30.44;98875.98;1676593;84;21040;-86
2022/07/25 11:07:37;;;;;;;8.88;4.90;;;;;;;32.52;30.29;98874.69;1662566;84;21075;-86
2022/07/25 11:10:05;;;;;;;6.42;4.80;;;;;;;32.71;29.48;98871.98;1678094;84;21088;-87
2022/07/25 11:12:33;;;;;;;6.60;4.45;;;;;;;32.84;28.64;98871.31;1688859;83;21019;-89
2022/07/25 11:15:04;;;;;;;7.12;4.97;;;;;;;32.73;27.78;98868.59;1697115;83;21144;-87
2022/07/25 11:17:33;;;;;;;7.95;5.03;;;;;;;32.78;28.15;98868.03;1678004;84;21124;-85
2022/07/25 11:20:10;;;;;;;9.05;5.10;;;;;;;32.72;28.33;98861.53;1682760;84;21116;-85
2022/07/25 11:22:37;;;;;;;10.05;5.00;;;;;;;32.78;27.83;98857.26;1684503;84;21024;-84
2022/07/25 11:25:15;;;;;;;6.58;4.92;;;;;;;32.97;28.40;98854.48;1691424;83;21119;-84
2022/07/25 11:27:42;;;;;;;6.10;4.35;;;;;;;33.03;27.71;98849.19;1679712;84;20997;-85
2022/07/25 11:30:15;;;;;;;7.33;4.37;;;;;;;33.16;27.49;98842.31;1682276;84;20992;-86
2022/07/25 11:32:50;;;;;;;6.53;4.37;;;;;;;33.32;26.98;98833.16;1676422;84;21044;-86
2022/07/25 11:35:24;;;;;;;8.08;4.95;;;;;;;33.51;26.98;98837.09;1687012;84;20990;-86